Tiempo atmosférico en la estación meteorológica de Monterrubio De La Demanda, Burgos (1190 m.)



Fecha
DESCASC
Temp. máxima en grados centígrados (hora)
DESCASC
Temp. mínima en grados centígrados (hora)
DESCASC
Temp. media en grados centígrados
DESCASC
Racha de viento máxima en m/sg (hora)
DESCASC
Velocidad máxima media en intervalos de 10 minutos(hora)
DESCASC
Precipitaciones diarias en mm
DESCASC
Precipitaciones de 00:00 a 06:00 en mm
DESCASC
Precipitaciones de 06:00 a 12:00 en mm
DESCASC
Precipitaciones de 12:00 a 18:00 en mm
DESCASC
Precipitaciones de 18:00 a 24:00 en mm
DESCASC
15-08-2019 26.9 (16:40) 12.9 (07:20) 19.9 9.72 (04:00) 7.78 (04:00) 0 0 0 0 0
14-08-2019 26.8 (17:40) 4.7 (00:00) 15.7 10.83 (16:40) 6.94 (23:50) 0 0 0 0 0
13-08-2019 22.6 (16:50) 6.3 (00:00) 14.5 10.83 (01:00) 6.39 (01:00) 0 0 0 0 0
12-08-2019 17.3 (16:00) 6.8 (00:00) 12 12.22 (19:40) 7.22 (02:40) 0 0 0 0 0
11-08-2019 21.1 (17:30) 11.5 (00:00) 16.3 12.5 (20:50) 8.61 (20:50) 0.8 0 0.8 0 0
10-08-2019 24.6 (18:50) 8.8 (00:00) 16.7 9.72 (22:10) 7.5 (22:30) 0.2 0 0.2 0 0
09-08-2019 23.7 (15:00) 10.8 (00:00) 17.3 16.67 (18:50) 10.56 (18:50) 6.2 0 0 0 6.2
08-08-2019 27.5 (19:30) 15.3 (00:00) 21.4 11.39 (19:40) 8.06 (17:30) 0 0 0 0 0
07-08-2019 24.9 (14:00) 13.5 (00:00) 19.2 13.06 (18:20) 8.61 (18:20) 0 0 0 0 0
06-08-2019 29.3 (16:40) 11.9 (00:00) 20.6 9.72 (15:00) 6.11 (15:00) 0 0 0 0 0
05-08-2019 30.5 (18:10) 13.2 (00:00) 21.8 11.39 (16:20) 7.22 (23:00) 0 0 0 0 0
04-08-2019 30.3 (17:00) 12.2 (00:00) 21.2 10.28 (14:50) 7.5 (22:50) 0 0 0 0 0
03-08-2019 31.1 (17:20) 11.2 (00:00) 21.2 10.56 (18:20) 5.83 (19:00) 0 0 0 0 0
02-08-2019 28.4 (16:40) 11.9 (00:00) 20.1 9.44 (16:50) 6.67 (00:40) 0 0 0 0 0
01-08-2019 27.5 (15:20) 13.2 (00:00) 20.3 11.11 (00:20) 8.33 (00:20) 0.2 0 0.2 0 0
31-07-2019 24.4 (15:40) 7.8 (00:00) 16.1 12.5 (19:00) 10 (19:00) 0 0 0 0 0
30-07-2019 20.4 (16:50) 9.5 (00:00) 14.9 11.67 (18:50) 7.78 (20:20) 0 0 0 0 0
29-07-2019 25 (16:20) 6.5 (00:00) 15.8 12.22 (15:20) 8.33 (15:20) 0 0 0 0 0
28-07-2019 21.9 (18:20) 7.7 (00:00) 14.8 8.33 (16:10) 5.28 (16:40) 0 0 0 0 0
27-07-2019 15.1 (13:10) 10.9 (00:00) 13 9.17 (14:50) 7.22 (14:50) 9.8 0.2 0 8 1.6
26-07-2019 22.6 (15:00) 12.8 (00:00) 17.7 12.22 (04:20) 8.33 (04:20) 0.8 0.4 0.4 0 0
25-07-2019 31 (17:30) 13.4 (00:00) 22.2 11.39 (16:20) 7.5 (15:50) 0 0 0 0 0
24-07-2019 30.8 (15:00) 11.3 (00:00) 21 15.28 (16:40) 8.06 (16:40) 0.2 0 0 0.2 0
23-07-2019 32 (17:00) 13 (00:00) 22.5 15.56 (17:40) 11.11 (17:40) 1.8 0 0 0.4 1.4
22-07-2019 32.4 (17:50) 16.1 (00:00) 24.3 10.56 (15:40) 7.78 (00:30) 0 0 0 0 0
21-07-2019 31.7 (16:40) 15.1 (00:00) 23.4 11.67 (20:00) 8.89 (19:10) 0 0 0 0 0
20-07-2019 30.6 (18:30) 12.6 (00:00) 21.6 12.22 (16:30) 8.06 (16:30) 0 0 0 0 0
19-07-2019 30.4 (17:40) 9.4 (00:00) 19.9 11.67 (16:50) 6.11 (15:30) 0 0 0 0 0
18-07-2019 27.1 (16:30) 11.7 (00:00) 19.4 10 (04:20) 7.22 (07:30) 0 0 0 0 0

Gráficas

Temp. máximas Temp. mínimas Temp. medias Precipitaciones Rachas de viento máximas Velocidades máximas media en intervalos de 10 minutos

Datos horarios

Fecha y hora oficial Temperatura (ºC) Velocidad del viento (km/h) Dirección del viento Racha (km/h) Dirección de racha Precipitación (mm) Presión (hPa) Tendencia (hPa) Humedad (%)
2019-08-16 23:00:00 18.7 2 Sudeste 8 Este 0 -- -- 53
2019-08-16 22:00:00 22 0 Calma 10 Norte 0 -- -- 42
2019-08-16 21:00:00 25.5 8 Norte 22 Oeste 0 -- -- 34
2019-08-16 20:00:00 28.3 15 Noroeste 28 Oeste 0 -- -- 31
2019-08-16 19:00:00 29.5 20 Oeste 31 Oeste 0 -- -- 29
2019-08-16 18:00:00 29.6 15 Oeste 32 Oeste 0 -- -- 29
2019-08-16 17:00:00 29.9 12 Noroeste 33 Oeste 0 -- -- 29
2019-08-16 16:00:00 29.1 20 Oeste 36 Oeste 0 -- -- 30
2019-08-16 15:00:00 28.6 14 Noroeste 33 Noroeste 0 -- -- 33
2019-08-16 14:00:00 27 14 Oeste 31 Noroeste 0 -- -- 37
2019-08-16 13:00:00 26.6 13 Noroeste 33 Oeste 0 -- -- 39
2019-08-16 12:00:00 25.7 10 Noroeste 18 Noroeste 0 -- -- 42
2019-08-16 11:00:00 22.9 3 Norte 7 Oeste 0 -- -- 51
2019-08-16 10:00:00 17.9 2 Oeste 5 Oeste 0 -- -- 70
2019-08-16 09:00:00 13.9 0 Calma 4 Sudeste 0 -- -- 82
2019-08-16 08:00:00 9.8 2 Este 3 Este 0 -- -- 94
2019-08-16 07:00:00 10.4 0 Calma 5 Sudeste 0 -- -- 94
2019-08-16 06:00:00 10.1 0 Calma 4 Oeste 0 -- -- 91
2019-08-16 05:00:00 11.2 0 Calma 10 Este 0 -- -- 87
2019-08-16 04:00:00 12.3 10 Este 14 Este 0 -- -- 87
2019-08-16 03:00:00 12.4 9 Este 17 Este 0 -- -- 88
2019-08-16 02:00:00 12.9 13 Este 21 Sudeste 0 -- -- 86
2019-08-16 01:00:00 14.4 17 Sudeste 28 Sudeste 0 -- -- 79
2019-08-16 00:00:00 14.8 16 Sudeste 26 Este 0 -- -- 78
2019-08-15 23:00:00 15.9 24 Sudeste 31 Sudeste 0 -- -- 74
2019-08-15 22:00:00 16.8 23 Sudeste 32 Este 0 -- -- 69
2019-08-15 21:00:00 18.3 15 Este 31 Sudeste 0 -- -- 63
2019-08-15 20:00:00 20.8 19 Este 28 Sudeste 0 -- -- 56
2019-08-15 19:00:00 22.5 18 Este 27 Sudeste 0 -- -- 55
2019-08-15 18:00:00 23.9 24 Sudeste 32 Sudeste 0 -- -- 52
2019-08-15 17:00:00 26.9 9 Noroeste 32 Oeste 0 -- -- 35
2019-08-15 16:00:00 26.4 17 Oeste 33 Noroeste 0 -- -- 33
2019-08-15 15:00:00 26.1 11 Oeste 28 Oeste 0 -- -- 39
2019-08-15 14:00:00 25.3 13 Noroeste 23 Oeste 0 -- -- 41
2019-08-15 13:00:00 23.9 10 Oeste 22 Oeste 0 -- -- 41
2019-08-15 12:00:00 22.1 7 Sudeste 23 Sudeste 0 -- -- 53
2019-08-15 11:00:00 19.6 16 Sudeste 25 Sudeste 0 -- -- 67
2019-08-15 10:00:00 17.6 19 Sudeste 28 Sudeste 0 -- -- 76
2019-08-15 09:00:00 14.7 17 Sudeste 23 Sudeste 0 -- -- 88
2019-08-15 08:00:00 13 10 Sudeste 29 Este 0 -- -- 92
2019-08-15 07:00:00 13.5 17 Este 28 Sudeste 0 -- -- 93
2019-08-15 06:00:00 13.9 20 Este 28 Este 0 -- -- 90
2019-08-15 05:00:00 13.1 20 Sudeste 33 Sudeste 0 -- -- 89
2019-08-15 04:00:00 13.6 28 Sudeste 35 Sudeste 0 -- -- 84
2019-08-15 03:00:00 14.2 26 Sudeste 33 Sudeste 0 -- -- 81
2019-08-15 02:00:00 15.1 19 Sudeste 33 Sudeste 0 -- -- 76
2019-08-15 01:00:00 16 27 Sudeste 33 Sudeste 0 -- -- 72
2019-08-15 00:00:00 16.9 22 Este 31 Sudeste 0 -- -- 68
2019-08-14 23:00:00 18.6 21 Este 29 Sudeste 0 -- -- 61
2019-08-14 22:00:00 20.3 11 Este 22 Este 0 -- -- 53
2019-08-14 21:00:00 21.9 17 Este 26 Nordeste 0 -- -- 47
2019-08-14 20:00:00 25.7 11 Noroeste 25 Oeste 0 -- -- 33
2019-08-14 19:00:00 26.4 16 Noroeste 29 Oeste 0 -- -- 32
2019-08-14 18:00:00 26.5 19 Oeste 36 Oeste 0 -- -- 30
2019-08-14 17:00:00 26.4 17 Oeste 39 Oeste 0 -- -- 30
2019-08-14 16:00:00 26.1 19 Oeste 35 Oeste 0 -- -- 31
2019-08-14 15:00:00 25.3 20 Oeste 30 Oeste 0 -- -- 31
2019-08-14 14:00:00 24.2 13 Oeste 30 Oeste 0 -- -- 34
2019-08-14 13:00:00 22.8 18 Oeste 30 Oeste 0 -- -- 33
2019-08-14 12:00:00 21.3 15 Oeste 27 Oeste 0 -- -- 35
2019-08-14 11:00:00 19.3 10 Oeste 20 Oeste 0 -- -- 41
2019-08-14 10:00:00 14 2 Oeste 5 Noroeste 0 -- -- 65
2019-08-14 09:00:00 9.4 0 Calma 4 Sudeste 0 -- -- 80
2019-08-14 08:00:00 6.3 0 Calma 4 Noroeste 0 -- -- 91
2019-08-14 07:00:00 4.7 2 Este 3 Este 0 -- -- 90
2019-08-14 06:00:00 6.8 3 Noroeste 5 Este 0 -- -- 89
2019-08-14 05:00:00 6.3 2 Sudeste 5 Noroeste 0 -- -- 83
2019-08-14 04:00:00 7.1 0 Calma 5 Noroeste 0 -- -- 86
2019-08-14 03:00:00 7.4 3 Oeste 7 Oeste 0 -- -- 84
2019-08-14 02:00:00 8.8 0 Calma 9 Este 0 -- -- 79
2019-08-14 01:00:00 10.7 6 Este 18 Sudeste 0 -- -- 79
2019-08-14 00:00:00 12.2 14 Sudeste 26 Este 0 -- -- 74
2019-08-13 23:00:00 13 13 Sudeste 22 Este 0 -- -- 68
2019-08-13 22:00:00 14 11 Este 18 Este 0 -- -- 63
2019-08-13 21:00:00 16.3 11 Este 23 Este 0 -- -- 54
2019-08-13 20:00:00 18.1 17 Nordeste 28 Nordeste 0 -- -- 46
2019-08-13 19:00:00 19.4 20 Nordeste 32 Nordeste 0 -- -- 43
2019-08-13 18:00:00 20.5 19 Nordeste 37 Noroeste 0 -- -- 42
2019-08-13 17:00:00 22.6 13 Noroeste 35 Noroeste 0 -- -- 38
2019-08-13 16:00:00 22 8 Noroeste 26 Noroeste 0 -- -- 29
2019-08-13 15:00:00 21.3 11 Oeste 28 Noroeste 0 -- -- 28
2019-08-13 14:00:00 20.2 10 Oeste 23 Oeste 0 -- -- 27
2019-08-13 13:00:00 18.2 7 Oeste 14 Noroeste 0 -- -- 30
2019-08-13 12:00:00 15.9 9 Sudeste 26 Sudeste 0 -- -- 39
2019-08-13 11:00:00 13.5 20 Sudeste 30 Sudeste 0 -- -- 54
2019-08-13 10:00:00 11.5 20 Sudeste 26 Sudeste 0 -- -- 66
2019-08-13 09:00:00 9.9 14 Sudeste 18 Sudeste 0 -- -- 74
2019-08-13 08:00:00 6.9 10 Sudeste 14 Sudeste 0 -- -- 84
2019-08-13 07:00:00 7.1 8 Sudeste 15 Sudeste 0 -- -- 85
2019-08-13 06:00:00 8 11 Sudeste 19 Este 0 -- -- 84
2019-08-13 05:00:00 8.5 14 Este 22 Este 0 -- -- 84
2019-08-13 04:00:00 8.9 12 Este 20 Sudeste 0 -- -- 82
2019-08-13 03:00:00 9.1 7 Este 21 Norte 0 -- -- 77
2019-08-13 02:00:00 9.6 11 Este 31 Nordeste 0 -- -- 76
2019-08-13 01:00:00 10 23 Nordeste 39 Nordeste 0 -- -- 74
2019-08-13 00:00:00 10.1 13 Este 22 Sudeste 0 -- -- 77
2019-08-12 23:00:00 10.6 12 Este 29 Este 0 -- -- 72
2019-08-12 22:00:00 10.8 18 Este 34 Este 0 -- -- 76
2019-08-12 21:00:00 11.3 23 Nordeste 40 Este 0 -- -- 75
2019-08-12 20:00:00 13.1 21 Este 44 Nordeste 0 -- -- 68
2019-08-12 19:00:00 15 23 Nordeste 39 Nordeste 0 -- -- 56
2019-08-12 18:00:00 16.3 22 Nordeste 42 Este 0 -- -- 49
2019-08-12 17:00:00 16.7 21 Nordeste 36 Este 0 -- -- 44
2019-08-12 16:00:00 17.3 18 Nordeste 33 Nordeste 0 -- -- 46
2019-08-12 15:00:00 16.4 18 Nordeste 32 Este 0 -- -- 48
2019-08-12 14:00:00 15.8 14 Este 31 Este 0 -- -- 50
2019-08-12 13:00:00 14.7 9 Este 27 Este 0 -- -- 54
2019-08-12 12:00:00 13.7 15 Sudeste 30 Sudeste 0 -- -- 58
2019-08-12 11:00:00 12 7 Este 23 Este 0 -- -- 70
2019-08-12 10:00:00 11.3 15 Este 22 Sudeste 0 -- -- 70
2019-08-12 09:00:00 10.3 10 Sudeste 17 Sudeste 0 -- -- 79
2019-08-12 08:00:00 7.3 5 Este 14 Sudeste 0 -- -- 94
2019-08-12 07:00:00 8 8 Este 20 Nordeste 0 -- -- 88
2019-08-12 06:00:00 7.8 6 Este 17 Este 0 -- -- 89
2019-08-12 05:00:00 9.3 8 Este 34 Nordeste 0 -- -- 84
2019-08-12 04:00:00 9.8 20 Nordeste 36 Nordeste 0 -- -- 84
2019-08-12 03:00:00 10 23 Nordeste 38 Nordeste 0 -- -- 87
2019-08-12 02:00:00 10.7 25 Nordeste 36 Nordeste 0 -- -- 87
2019-08-12 01:00:00 11.3 18 Este 27 Este 0 -- -- 87
2019-08-12 00:00:00 11.5 9 Este 22 Este 0 -- -- 87
2019-08-11 23:00:00 12 12 Este 30 Este 0 -- -- 85
2019-08-11 22:00:00 12.9 15 Este 32 Nordeste 0 -- -- 80
2019-08-11 21:00:00 14 28 Nordeste 45 Nordeste 0 -- -- 76
2019-08-11 20:00:00 17.2 21 Nordeste 35 Nordeste 0 -- -- 63
2019-08-11 19:00:00 20.3 15 Noroeste 33 Oeste 0 -- -- 44
2019-08-11 18:00:00 21.1 21 Oeste 34 Oeste 0 -- -- 42
2019-08-11 17:00:00 20.1 19 Noroeste 37 Noroeste 0 -- -- 47
2019-08-11 16:00:00 20.4 19 Noroeste 41 Noroeste 0 -- -- 48
2019-08-11 15:00:00 20 22 Noroeste 32 Oeste 0 -- -- 49
2019-08-11 14:00:00 19.4 18 Oeste 32 Noroeste 0 -- -- 51
2019-08-11 13:00:00 19.6 19 Oeste 33 Oeste 0 -- -- 52
2019-08-11 12:00:00 18.7 14 Oeste 27 Oeste 0 -- -- 55
2019-08-11 11:00:00 17.1 5 Noroeste 12 Noroeste 0 -- -- 63
2019-08-11 10:00:00 15.8 8 Sudeste 13 Sudeste 0 -- -- 75
2019-08-11 09:00:00 13.5 6 Sudeste 13 Este 0 -- -- 93
2019-08-11 08:00:00 12 9 Este 12 Este 0 -- -- 93
2019-08-11 07:00:00 12.5 4 Oeste 23 Oeste 0.8 -- -- 93
2019-08-11 06:00:00 13.3 15 Noroeste 25 Noroeste 0 -- -- 87
2019-08-11 05:00:00 13.9 2 Noroeste 5 Sudeste 0 -- -- 93
2019-08-11 04:00:00 13.8 0 Calma 5 Sudeste 0 -- -- 92
2019-08-11 03:00:00 13.8 2 Noroeste 24 Este 0 -- -- 93
2019-08-11 02:00:00 14.2 14 Este 30 Sudeste 0 -- -- 91
2019-08-11 01:00:00 14.2 19 Sudeste 33 Sudeste 0 -- -- 91
2019-08-11 00:00:00 15.2 12 Sudeste 34 Sudeste 0 -- -- 86
2019-08-10 23:00:00 16.8 22 Sudeste 35 Sudeste 0 -- -- 76
2019-08-10 22:00:00 18 23 Sudeste 35 Sudeste 0 -- -- 70
2019-08-10 21:00:00 21.3 5 Norte 13 Noroeste 0 -- -- 40
2019-08-10 20:00:00 23.5 9 Noroeste 21 Noroeste 0 -- -- 35
2019-08-10 19:00:00 24.5 13 Noroeste 24 Noroeste 0 -- -- 32
2019-08-10 18:00:00 24.2 12 Oeste 27 Oeste 0 -- -- 36
2019-08-10 17:00:00 23.8 17 Oeste 29 Noroeste 0 -- -- 38
2019-08-10 16:00:00 22.9 14 Noroeste 31 Oeste 0 -- -- 42
2019-08-10 15:00:00 21.5 11 Oeste 27 Oeste 0 -- -- 47
2019-08-10 14:00:00 20.3 11 Noroeste 23 Oeste 0 -- -- 51
2019-08-10 13:00:00 19 9 Norte 22 Oeste 0 -- -- 62
2019-08-10 12:00:00 17.5 15 Oeste 22 Sudoeste 0 -- -- 70
2019-08-10 11:00:00 16.4 6 Oeste 16 Noroeste 0 -- -- 77
2019-08-10 10:00:00 12.5 0 Calma 7 Oeste 0 -- -- 98
2019-08-10 09:00:00 11 0 Calma 5 Noroeste 0.2 -- -- 97
2019-08-10 08:00:00 9.4 3 Noroeste 5 Oeste 0 -- -- 99
2019-08-10 07:00:00 8.8 0 Calma 2 Sudeste 0 -- -- 98
2019-08-10 06:00:00 8.9 0 Calma 5 Oeste 0 -- -- 99
2019-08-10 05:00:00 9.1 2 Oeste 6 Oeste 0 -- -- 99
2019-08-10 04:00:00 8.9 0 Calma 5 Oeste 0 -- -- 99
2019-08-10 03:00:00 9.2 3 Oeste 5 Noroeste 0 -- -- 98
2019-08-10 02:00:00 9.8 3 Oeste 5 Noroeste 0 -- -- 97
2019-08-10 01:00:00 10.5 0 Calma 10 Sudoeste 0 -- -- 97
2019-08-10 00:00:00 11.1 4 Norte 6 Norte 0 -- -- 96
2019-08-09 23:00:00 11.9 0 Calma 12 Noroeste 0 -- -- 91
2019-08-09 22:00:00 13.3 6 Nordeste 12 Norte 0.4 -- -- 88
2019-08-09 21:00:00 14.2 5 Sur 25 Noroeste 5.6 -- -- 93
2019-08-09 20:00:00 16.2 13 Norte 52 Noroeste 0.2 -- -- 76
2019-08-09 19:00:00 18.9 30 Noroeste 60 Noroeste 0 -- -- 59
2019-08-09 18:00:00 22.3 32 Oeste 55 Oeste 0 -- -- 63
2019-08-09 17:00:00 22.7 30 Oeste 43 Oeste 0 -- -- 65
2019-08-09 16:00:00 22.4 24 Noroeste 44 Oeste 0 -- -- 66
2019-08-09 15:00:00 23.7 28 Oeste 53 Oeste 0 -- -- 63
2019-08-09 14:00:00 23.6 31 Oeste 54 Oeste 0 -- -- 62
2019-08-09 13:00:00 22.6 31 Oeste 54 Oeste 0 -- -- 62
2019-08-09 12:00:00 22.3 33 Oeste 58 Oeste 0 -- -- 63
2019-08-09 11:00:00 21.3 35 Oeste 47 Oeste 0 -- -- 66
2019-08-09 10:00:00 19.9 23 Oeste 37 Oeste 0 -- -- 71
2019-08-09 09:00:00 18.2 8 Noroeste 19 Noroeste 0 -- -- 74
2019-08-09 08:00:00 16.6 6 Norte 12 Oeste 0 -- -- 81
2019-08-09 07:00:00 15.3 3 Nordeste 10 Norte 0 -- -- 81
2019-08-09 06:00:00 15.4 4 Noroeste 10 Sudoeste 0 -- -- 85
2019-08-09 05:00:00 15.1 0 Calma 8 Norte 0 -- -- 81
2019-08-09 04:00:00 17.8 3 Noroeste 8 Norte 0 -- -- 70
2019-08-09 03:00:00 17.5 3 Sudeste 10 Norte 0 -- -- 72
2019-08-09 02:00:00 19.7 8 Norte 13 Norte 0 -- -- 64
2019-08-09 01:00:00 20.7 11 Noroeste 15 Noroeste 0 -- -- 61
2019-08-09 00:00:00 21.8 9 Noroeste 15 Norte 0 -- -- 55
2019-08-08 23:00:00 22.6 8 Norte 12 Noroeste 0 -- -- 49
2019-08-08 22:00:00 23.6 6 Noroeste 26 Noroeste 0 -- -- 44
2019-08-08 21:00:00 25.6 13 Noroeste 37 Oeste 0 -- -- 45
2019-08-08 20:00:00 26.4 19 Oeste 41 Oeste 0 -- -- 45
2019-08-08 19:00:00 26.4 23 Oeste 38 Oeste 0 -- -- 46
2019-08-08 18:00:00 26.4 19 Sudoeste 41 Oeste 0 -- -- 48
2019-08-08 17:00:00 26 21 Sudoeste 32 Oeste 0 -- -- 50
2019-08-08 16:00:00 24.7 16 Noroeste 34 Oeste 0 -- -- 56
2019-08-08 15:00:00 23.7 12 Noroeste 25 Noroeste 0 -- -- 59
2019-08-08 14:00:00 22.3 16 Oeste 36 Oeste 0 -- -- 61
2019-08-08 13:00:00 22.3 21 Oeste 32 Oeste 0 -- -- 60
2019-08-08 12:00:00 20.5 18 Oeste 36 Oeste 0 -- -- 66
2019-08-08 11:00:00 18.7 15 Oeste 25 Oeste 0 -- -- 71
2019-08-08 10:00:00 17.5 15 Oeste 26 Oeste 0 -- -- 76
2019-08-08 09:00:00 17.6 12 Noroeste 18 Norte 0 -- -- 73
2019-08-08 08:00:00 16.6 10 Noroeste 15 Noroeste 0 -- -- 75
2019-08-08 07:00:00 15.8 6 Oeste 17 Noroeste 0 -- -- 79
2019-08-08 06:00:00 16.8 10 Noroeste 18 Noroeste 0 -- -- 73
2019-08-08 05:00:00 16.3 8 Noroeste 15 Noroeste 0 -- -- 74
2019-08-08 04:00:00 15.5 5 Oeste 9 Norte 0 -- -- 80
2019-08-08 03:00:00 16.5 3 Norte 9 Norte 0 -- -- 75
2019-08-08 02:00:00 16 5 Norte 12 Noroeste 0 -- -- 77
2019-08-08 01:00:00 16.5 7 Noroeste 14 Noroeste 0 -- -- 75
2019-08-08 00:00:00 17.1 7 Noroeste 14 Noroeste 0 -- -- 73
2019-08-07 23:00:00 18.6 15 Oeste 24 Oeste 0 -- -- 63
2019-08-07 22:00:00 19.8 7 Noroeste 17 Oeste 0 -- -- 58
2019-08-07 21:00:00 20.4 7 Oeste 18 Sudoeste 0 -- -- 55
2019-08-07 20:00:00 21.4 12 Oeste 18 Oeste 0 -- -- 51
2019-08-07 19:00:00 20.5 10 Noroeste 47 Oeste 0 -- -- 55
2019-08-07 18:00:00 21.9 23 Oeste 33 Sudoeste 0 -- -- 50
2019-08-07 17:00:00 21.8 18 Sudoeste 33 Oeste 0 -- -- 52
2019-08-07 16:00:00 23.1 21 Oeste 31 Noroeste 0 -- -- 46
2019-08-07 15:00:00 23.5 22 Oeste 35 Noroeste 0 -- -- 44
2019-08-07 14:00:00 24.9 22 Noroeste 35 Noroeste 0 -- -- 41
2019-08-07 13:00:00 23.7 19 Oeste 33 Oeste 0 -- -- 43
2019-08-07 12:00:00 22.8 22 Oeste 32 Oeste 0 -- -- 47
2019-08-07 11:00:00 21.5 11 Noroeste 24 Noroeste 0 -- -- 51
2019-08-07 10:00:00 20.1 7 Oeste 13 Oeste 0 -- -- 59
2019-08-07 09:00:00 17.2 0 Calma 4 Oeste 0 -- -- 79
2019-08-07 08:00:00 13.7 0 Calma 3 Sudeste 0 -- -- 89
2019-08-07 07:00:00 13.8 0 Calma 5 Sudeste 0 -- -- 88
2019-08-07 06:00:00 14.6 0 Calma 8 Sudeste 0 -- -- 86
2019-08-07 05:00:00 14.5 5 Este 14 Sudeste 0 -- -- 87
2019-08-07 04:00:00 15.1 5 Este 28 Este 0 -- -- 86
2019-08-07 03:00:00 14.9 22 Sudeste 30 Sudeste 0 -- -- 85
2019-08-07 02:00:00 15.6 15 Sudeste 33 Sudeste 0 -- -- 86
2019-08-07 01:00:00 16.3 24 Sudeste 33 Este 0 -- -- 83
2019-08-07 00:00:00 17.5 22 Sudeste 27 Sudeste 0 -- -- 80
2019-08-06 23:00:00 19.9 14 Este 30 Nordeste 0 -- -- 70
2019-08-06 22:00:00 22.1 15 Nordeste 24 Nordeste 0 -- -- 61
2019-08-06 21:00:00 24.1 6 Sudeste 13 Norte 0 -- -- 48
2019-08-06 20:00:00 26.4 8 Norte 19 Noroeste 0 -- -- 38
2019-08-06 19:00:00 27.4 14 Noroeste 28 Noroeste 0 -- -- 33
2019-08-06 18:00:00 28 17 Noroeste 31 Noroeste 0 -- -- 32
2019-08-06 17:00:00 28.2 17 Noroeste 33 Oeste 0 -- -- 31
2019-08-06 16:00:00 28.6 19 Noroeste 33 Noroeste 0 -- -- 30
2019-08-06 15:00:00 28.4 22 Noroeste 35 Noroeste 0 -- -- 35
2019-08-06 14:00:00 26.6 15 Noroeste 26 Noroeste 0 -- -- 41
2019-08-06 13:00:00 26 18 Noroeste 27 Noroeste 0 -- -- 42
2019-08-06 12:00:00 24.6 14 Noroeste 23 Oeste 0 -- -- 46
2019-08-06 11:00:00 23.4 14 Noroeste 21 Norte 0 -- -- 50
2019-08-06 10:00:00 19.4 7 Oeste 12 Oeste 0 -- -- 74
2019-08-06 09:00:00 15.3 0 Calma 4 Este 0 -- -- 87
2019-08-06 08:00:00 13 0 Calma 6 Oeste 0 -- -- 94
2019-08-06 07:00:00 12.4 0 Calma 4 Oeste 0 -- -- 92
2019-08-06 06:00:00 13 0 Calma 3 Sudeste 0 -- -- 92
2019-08-06 05:00:00 14.1 3 Este 11 Este 0 -- -- 93
2019-08-06 04:00:00 14.6 10 Sudeste 17 Este 0 -- -- 94
2019-08-06 03:00:00 15.5 12 Este 22 Este 0 -- -- 93
2019-08-06 02:00:00 16.7 6 Sudeste 26 Sudeste 0 -- -- 86
2019-08-06 01:00:00 18.3 17 Sudeste 28 Este 0 -- -- 82
2019-08-06 00:00:00 19 15 Sudeste 33 Sudeste 0 -- -- 77
2019-08-05 23:00:00 20.5 26 Sudeste 33 Sudeste 0 -- -- 71
2019-08-05 22:00:00 22.3 15 Sudeste 25 Este 0 -- -- 58
2019-08-05 21:00:00 24.6 15 Este 27 Este 0 -- -- 51
2019-08-05 20:00:00 29.5 9 Noroeste 23 Noroeste 0 -- -- 23
2019-08-05 19:00:00 30 19 Noroeste 35 Oeste 0 -- -- 21
2019-08-05 18:00:00 30.2 17 Noroeste 35 Oeste 0 -- -- 21
2019-08-05 17:00:00 30.4 18 Noroeste 41 Oeste 0 -- -- 21
2019-08-05 16:00:00 29.8 15 Sudoeste 34 Oeste 0 -- -- 23
2019-08-05 15:00:00 29.5 19 Oeste 37 Oeste 0 -- -- 25
2019-08-05 14:00:00 28.8 21 Oeste 40 Oeste 0 -- -- 31
2019-08-05 13:00:00 27.5 19 Oeste 31 Noroeste 0 -- -- 36
2019-08-05 12:00:00 25.9 6 Noroeste 14 Noroeste 0 -- -- 42
2019-08-05 11:00:00 23 4 Oeste 9 Oeste 0 -- -- 59
2019-08-05 10:00:00 18.7 3 Sudeste 14 Sudeste 0 -- -- 81
2019-08-05 09:00:00 14.3 13 Sudeste 19 Sudeste 0 -- -- 100
2019-08-05 08:00:00 13.3 8 Este 13 Sudeste 0 -- -- 100
2019-08-05 07:00:00 13.4 5 Este 13 Este 0 -- -- 100
2019-08-05 06:00:00 13.8 7 Este 18 Este 0 -- -- 100
2019-08-05 05:00:00 14.2 12 Este 17 Sudeste 0 -- -- 99
2019-08-05 04:00:00 14.5 9 Este 30 Este 0 -- -- 99
2019-08-05 03:00:00 14.8 21 Sudeste 30 Sudeste 0 -- -- 99
2019-08-05 02:00:00 15 20 Sudeste 29 Sudeste 0 -- -- 96
2019-08-05 01:00:00 16.1 19 Sudeste 33 Sudeste 0 -- -- 91
2019-08-05 00:00:00 17.7 25 Sudeste 35 Sudeste 0 -- -- 84
2019-08-04 23:00:00 19.7 26 Sudeste 36 Este 0 -- -- 76
2019-08-04 22:00:00 22.4 18 Este 27 Este 0 -- -- 61
2019-08-04 21:00:00 24.5 15 Este 25 Sudeste 0 -- -- 54
2019-08-04 20:00:00 28.8 15 Noroeste 30 Noroeste 0 -- -- 29
2019-08-04 19:00:00 29.8 21 Oeste 33 Oeste 0 -- -- 22
2019-08-04 18:00:00 30.1 21 Noroeste 34 Oeste 0 -- -- 23
2019-08-04 17:00:00 30.3 20 Oeste 35 Noroeste 0 -- -- 26
2019-08-04 16:00:00 29.6 19 Oeste 36 Oeste 0 -- -- 26
2019-08-04 15:00:00 29.3 19 Oeste 37 Oeste 0 -- -- 28
2019-08-04 14:00:00 28.1 18 Oeste 35 Oeste 0 -- -- 34
2019-08-04 13:00:00 27.2 20 Oeste 31 Oeste 0 -- -- 36
2019-08-04 12:00:00 26 11 Noroeste 22 Noroeste 0 -- -- 45
2019-08-04 11:00:00 24.2 10 Noroeste 18 Noroeste 0 -- -- 49
2019-08-04 10:00:00 19.3 3 Oeste 7 Noroeste 0 -- -- 69
2019-08-04 09:00:00 15.5 0 Calma 4 Oeste 0 -- -- 81
2019-08-04 08:00:00 12.9 0 Calma 6 Este 0 -- -- 88
2019-08-04 07:00:00 12.6 3 Sudeste 17 Sudeste 0 -- -- 85
2019-08-04 06:00:00 13.5 3 Este 13 Sudeste 0 -- -- 83
2019-08-04 05:00:00 14.4 6 Este 17 Sudeste 0 -- -- 87
2019-08-04 04:00:00 16.8 9 Sudeste 28 Sudeste 0 -- -- 82
2019-08-04 03:00:00 17.8 19 Este 28 Sudeste 0 -- -- 79
2019-08-04 02:00:00 18.3 15 Sudeste 25 Sudeste 0 -- -- 77
2019-08-04 01:00:00 19 12 Sudeste 24 Sudeste 0 -- -- 73
2019-08-04 00:00:00 20.2 19 Sudeste 27 Sudeste 0 -- -- 61
2019-08-03 23:00:00 20.7 4 Sudeste 15 Este 0 -- -- 52
2019-08-03 22:00:00 22.6 6 Este 23 Nordeste 0 -- -- 50
2019-08-03 21:00:00 24.8 14 Nordeste 26 Nordeste 0 -- -- 43
2019-08-03 20:00:00 26.7 16 Nordeste 27 Nordeste 0 -- -- 41
2019-08-03 19:00:00 27.7 21 Nordeste 38 Oeste 0 -- -- 40
2019-08-03 18:00:00 30.6 10 Noroeste 29 Oeste 0 -- -- 28
2019-08-03 17:00:00 31 10 Noroeste 30 Oeste 0 -- -- 25
2019-08-03 16:00:00 29.9 14 Noroeste 32 Oeste 0 -- -- 26
2019-08-03 15:00:00 29.3 10 Noroeste 28 Oeste 0 -- -- 29
2019-08-03 14:00:00 27.8 11 Noroeste 32 Oeste 0 -- -- 31
2019-08-03 13:00:00 27.9 16 Noroeste 25 Oeste 0 -- -- 30
2019-08-03 12:00:00 26.4 8 Oeste 19 Oeste 0 -- -- 39
2019-08-03 11:00:00 25 14 Sudeste 21 Sudeste 0 -- -- 41
2019-08-03 10:00:00 21.5 13 Sudeste 17 Sudeste 0 -- -- 52
2019-08-03 09:00:00 16.2 4 Este 11 Este 0 -- -- 68
2019-08-03 08:00:00 12.9 4 Sudeste 11 Este 0 -- -- 77
2019-08-03 07:00:00 11.3 0 Calma 10 Este 0 -- -- 82
2019-08-03 06:00:00 11.5 0 Calma 6 Este 0 -- -- 81
2019-08-03 05:00:00 12.5 3 Este 9 Sudeste 0 -- -- 81
2019-08-03 04:00:00 13.6 4 Este 9 Este 0 -- -- 78
2019-08-03 03:00:00 14 3 Este 9 Sudeste 0 -- -- 76
2019-08-03 02:00:00 14.8 8 Este 17 Sudeste 0 -- -- 77
2019-08-03 01:00:00 16.1 12 Sudeste 23 Sudeste 0 -- -- 73
2019-08-03 00:00:00 16.3 11 Sudeste 19 Este 0 -- -- 71
2019-08-02 23:00:00 19.2 13 Este 23 Este 0 -- -- 61
2019-08-02 22:00:00 19.8 11 Este 23 Este 0 -- -- 57
2019-08-02 21:00:00 21.9 14 Este 29 Nordeste 0 -- -- 50
2019-08-02 20:00:00 23.9 19 Nordeste 30 Este 0 -- -- 44
2019-08-02 19:00:00 25.6 15 Nordeste 26 Este 0 -- -- 46
2019-08-02 18:00:00 27.1 17 Este 27 Noroeste 0 -- -- 44
2019-08-02 17:00:00 28.2 15 Noroeste 34 Oeste 0 -- -- 35
2019-08-02 16:00:00 27.8 15 Noroeste 31 Oeste 0 -- -- 34
2019-08-02 15:00:00 27.3 17 Noroeste 28 Oeste 0 -- -- 32
2019-08-02 14:00:00 26.4 11 Oeste 24 Oeste 0 -- -- 33
2019-08-02 13:00:00 25.7 13 Noroeste 24 Oeste 0 -- -- 35
2019-08-02 12:00:00 24.1 7 Oeste 16 Oeste 0 -- -- 45
2019-08-02 11:00:00 21.4 3 Sur 13 Sudeste 0 -- -- 55
2019-08-02 10:00:00 17.2 12 Sudeste 19 Sudeste 0 -- -- 76
2019-08-02 09:00:00 13.9 15 Sudeste 21 Sudeste 0 -- -- 93
2019-08-02 08:00:00 12.2 9 Este 14 Sudeste 0 -- -- 99
2019-08-02 07:00:00 12.1 8 Este 24 Este 0 -- -- 99
2019-08-02 06:00:00 12.7 20 Este 31 Sudeste 0 -- -- 99
2019-08-02 05:00:00 13.3 21 Sudeste 31 Este 0 -- -- 98
2019-08-02 04:00:00 13.8 23 Sudeste 32 Sudeste 0 -- -- 98
2019-08-02 03:00:00 14.2 22 Sudeste 30 Sudeste 0 -- -- 97
2019-08-02 02:00:00 14.2 17 Este 31 Sudeste 0 -- -- 98
2019-08-02 01:00:00 14.3 22 Sudeste 32 Este 0 -- -- 97
2019-08-02 00:00:00 14.9 22 Sudeste 30 Sudeste 0 -- -- 95
2019-08-01 23:00:00 15.8 21 Este 29 Sudeste 0 -- -- 93
2019-08-01 22:00:00 17 17 Este 26 Sudeste 0 -- -- 88
2019-08-01 21:00:00 19.6 15 Este 24 Sudeste 0 -- -- 78
2019-08-01 20:00:00 22 15 Este 31 Este 0 -- -- 68
2019-08-01 19:00:00 24.5 16 Este 29 Este 0 -- -- 57
2019-08-01 18:00:00 26.4 15 Noroeste 33 Noroeste 0 -- -- 43
2019-08-01 17:00:00 26.9 21 Noroeste 35 Noroeste 0 -- -- 42
2019-08-01 16:00:00 26.7 23 Noroeste 36 Sudoeste 0 -- -- 43
2019-08-01 15:00:00 26.9 22 Noroeste 36 Oeste 0 -- -- 34
2019-08-01 14:00:00 26.2 18 Oeste 38 Oeste 0 -- -- 38
2019-08-01 13:00:00 23.6 10 Noroeste 24 Noroeste 0 -- -- 57
2019-08-01 12:00:00 22.3 5 Sudeste 28 Sudeste 0 -- -- 63
2019-08-01 11:00:00 18.5 22 Sudeste 32 Este 0 -- -- 74
2019-08-01 10:00:00 15.7 27 Sudeste 36 Sudeste 0 -- -- 85
2019-08-01 09:00:00 13.4 24 Sudeste 36 Este 0 -- -- 94
2019-08-01 08:00:00 13.4 24 Sudeste 36 Este 0.2 -- -- 91
2019-08-01 07:00:00 14 23 Sudeste 35 Sudeste 0 -- -- 87
2019-08-01 06:00:00 13.6 26 Este 39 Este 0 -- -- 87
2019-08-01 05:00:00 15 8 Sudeste 39 Sudeste 0 -- -- 78
2019-08-01 04:00:00 15.4 27 Este 38 Este 0 -- -- 74
2019-08-01 03:00:00 16.2 21 Este 32 Este 0 -- -- 69
2019-08-01 02:00:00 16 21 Este 34 Este 0 -- -- 69
2019-08-01 01:00:00 16.3 23 Este 40 Sudeste 0 -- -- 67
2019-08-01 00:00:00 16.5 30 Este 41 Sudeste 0 -- -- 65
2019-07-31 23:00:00 17.1 30 Sudeste 40 Sudeste 0 -- -- 60
2019-07-31 22:00:00 17.6 14 Este 24 Sudeste 0 -- -- 54
2019-07-31 21:00:00 19.4 7 Este 32 Sudeste 0 -- -- 50
2019-07-31 20:00:00 21.1 21 Sudeste 42 Sudeste 0 -- -- 47
2019-07-31 19:00:00 22 36 Sudeste 45 Sudeste 0 -- -- 47
2019-07-31 18:00:00 22.3 30 Sudeste 42 Sudeste 0 -- -- 49
2019-07-31 17:00:00 23.3 30 Sudeste 37 Sudeste 0 -- -- 49
2019-07-31 16:00:00 24 22 Sudeste 31 Sudeste 0 -- -- 48
2019-07-31 15:00:00 22.9 20 Sudeste 27 Sudeste 0 -- -- 49
2019-07-31 14:00:00 22.6 14 Sudeste 27 Sudeste 0 -- -- 50
2019-07-31 13:00:00 21.5 13 Sudeste 26 Sudeste 0 -- -- 49
2019-07-31 12:00:00 18.9 22 Sudeste 33 Sudeste 0 -- -- 52
2019-07-31 11:00:00 16.1 26 Este 36 Este 0 -- -- 54
2019-07-31 10:00:00 13 28 Sudeste 35 Sudeste 0 -- -- 69
2019-07-31 09:00:00 10.3 23 Sudeste 37 Sudeste 0 -- -- 84
2019-07-31 08:00:00 8.6 19 Sudeste 32 Sudeste 0 -- -- 91
2019-07-31 07:00:00 8.1 23 Este 33 Este 0 -- -- 92
2019-07-31 06:00:00 7.8 16 Sudeste 31 Sudeste 0 -- -- 94
2019-07-31 05:00:00 8.9 21 Este 35 Sudeste 0 -- -- 89
2019-07-31 04:00:00 8.3 25 Sudeste 35 Sudeste 0 -- -- 93
2019-07-31 03:00:00 8.5 24 Sudeste 32 Este 0 -- -- 91
2019-07-31 02:00:00 9.1 21 Sudeste 30 Sudeste 0 -- -- 88
2019-07-31 01:00:00 9.8 16 Este 26 Este 0 -- -- 84
2019-07-31 00:00:00 10.5 16 Este 26 Este 0 -- -- 82
2019-07-30 23:00:00 11.4 12 Este 23 Nordeste 0 -- -- 78
2019-07-30 22:00:00 12.6 19 Nordeste 37 Nordeste 0 -- -- 73
2019-07-30 21:00:00 14.3 22 Nordeste 39 Nordeste 0 -- -- 65
2019-07-30 20:00:00 16.1 28 Nordeste 41 Nordeste 0 -- -- 57
2019-07-30 19:00:00 17.8 26 Nordeste 42 Nordeste 0 -- -- 51
2019-07-30 18:00:00 19.2 21 Nordeste 33 Este 0 -- -- 49
2019-07-30 17:00:00 20.1 17 Este 31 Sudeste 0 -- -- 48
2019-07-30 16:00:00 20 17 Sudeste 28 Este 0 -- -- 48
2019-07-30 15:00:00 18.6 21 Nordeste 33 Este 0 -- -- 51
2019-07-30 14:00:00 19.3 13 Este 25 Sur 0 -- -- 47
2019-07-30 13:00:00 17.6 11 Sudeste 24 Este 0 -- -- 48
2019-07-30 12:00:00 16.5 12 Sudeste 25 Sudeste 0 -- -- 56
2019-07-30 11:00:00 14.4 14 Sudeste 24 Sudeste 0 -- -- 65
2019-07-30 10:00:00 13 14 Sudeste 23 Sudeste 0 -- -- 75
2019-07-30 09:00:00 11 14 Este 22 Este 0 -- -- 91
2019-07-30 08:00:00 9.6 10 Este 15 Este 0 -- -- 94
2019-07-30 07:00:00 10 12 Este 21 Este 0 -- -- 95
2019-07-30 06:00:00 10.4 12 Este 21 Sudeste 0 -- -- 95
2019-07-30 05:00:00 10.8 8 Este 23 Este 0 -- -- 93
2019-07-30 04:00:00 11.1 12 Este 23 Sudeste 0 -- -- 94
2019-07-30 03:00:00 10.8 14 Sudeste 24 Este 0 -- -- 94
2019-07-30 02:00:00 11.3 16 Sudeste 27 Sudeste 0 -- -- 94
2019-07-30 01:00:00 11.9 20 Sudeste 27 Este 0 -- -- 93
2019-07-30 00:00:00 12.6 24 Sudeste 30 Sudeste 0 -- -- 90
2019-07-29 23:00:00 15.2 0 Calma 6 Norte 0 -- -- 46
2019-07-29 22:00:00 18 0 Calma 14 Noroeste 0 -- -- 39
2019-07-29 21:00:00 21.1 9 Noroeste 30 Oeste 0 -- -- 33
2019-07-29 20:00:00 23.5 17 Noroeste 35 Oeste 0 -- -- 27
2019-07-29 19:00:00 24.1 23 Noroeste 39 Oeste 0 -- -- 36
2019-07-29 18:00:00 24.3 26 Oeste 42 Oeste 0 -- -- 39
2019-07-29 17:00:00 24.5 28 Noroeste 42 Noroeste 0 -- -- 38
2019-07-29 16:00:00 24.9 23 Oeste 44 Oeste 0 -- -- 37
2019-07-29 15:00:00 24.1 26 Oeste 43 Oeste 0 -- -- 36
2019-07-29 14:00:00 23 22 Oeste 41 Oeste 0 -- -- 35
2019-07-29 13:00:00 22 19 Oeste 35 Noroeste 0 -- -- 36
2019-07-29 12:00:00 20.5 17 Oeste 28 Oeste 0 -- -- 46
2019-07-29 11:00:00 18.8 12 Noroeste 23 Noroeste 0 -- -- 48
2019-07-29 10:00:00 15.3 3 Oeste 6 Oeste 0 -- -- 71
2019-07-29 09:00:00 11.2 2 Oeste 6 Oeste 0 -- -- 80
2019-07-29 08:00:00 8.2 0 Calma 2 Este 0 -- -- 91
2019-07-29 07:00:00 6.8 0 Calma 3 Norte 0 -- -- 91
2019-07-29 06:00:00 6.5 0 Calma 3 Nordeste 0 -- -- 90
2019-07-29 05:00:00 7.2 0 Calma 4 Este 0 -- -- 90
2019-07-29 04:00:00 7.3 0 Calma 3 Nordeste 0 -- -- 89
2019-07-29 03:00:00 8.1 2 Oeste 4 Noroeste 0 -- -- 86
2019-07-29 02:00:00 8.5 2 Este 3 Oeste 0 -- -- 84
2019-07-29 01:00:00 10 0 Calma 2 Sudoeste 0 -- -- 79
2019-07-29 00:00:00 11.5 0 Calma 6 Noroeste 0 -- -- 73
2019-07-28 23:00:00 13.1 4 Noroeste 6 Noroeste 0 -- -- 65
2019-07-28 22:00:00 15.8 3 Noroeste 10 Norte 0 -- -- 55
2019-07-28 21:00:00 18.9 7 Norte 23 Oeste 0 -- -- 44
2019-07-28 20:00:00 20.9 18 Oeste 25 Oeste 0 -- -- 35
2019-07-28 19:00:00 21.6 14 Oeste 27 Oeste 0 -- -- 33
2019-07-28 18:00:00 21.6 18 Oeste 27 Noroeste 0 -- -- 32
2019-07-28 17:00:00 21.5 14 Noroeste 30 Oeste 0 -- -- 36
2019-07-28 16:00:00 20.6 13 Oeste 29 Oeste 0 -- -- 45
2019-07-28 15:00:00 19.6 11 Noroeste 23 Oeste 0 -- -- 48
2019-07-28 14:00:00 18.6 11 Sudoeste 18 Sudoeste 0 -- -- 52
2019-07-28 13:00:00 17.2 5 Sudoeste 17 Sudeste 0 -- -- 59
2019-07-28 12:00:00 14.9 12 Sudeste 27 Sudeste 0 -- -- 69
2019-07-28 11:00:00 13 16 Este 24 Sudeste 0 -- -- 79
2019-07-28 10:00:00 11.6 17 Sudeste 26 Sudeste 0 -- -- 83
2019-07-28 09:00:00 11.2 11 Sudeste 17 Sudeste 0 -- -- 88
2019-07-28 08:00:00 8.1 6 Este 14 Nordeste 0 -- -- 97
2019-07-28 07:00:00 7.8 5 Este 9 Este 0 -- -- 97
2019-07-28 06:00:00 8.4 4 Sudeste 13 Nordeste 0 -- -- 94
2019-07-28 05:00:00 8.7 9 Sudeste 17 Este 0 -- -- 94
2019-07-28 04:00:00 9.3 10 Este 15 Este 0 -- -- 94
2019-07-28 03:00:00 10 3 Sudeste 20 Este 0 -- -- 92
2019-07-28 02:00:00 10 5 Este 12 Sudeste 0 -- -- 93
2019-07-28 01:00:00 10.5 5 Este 16 Este 0 -- -- 93
2019-07-28 00:00:00 11.1 9 Este 27 Sudeste 0 -- -- 89
2019-07-27 23:00:00 10.9 15 Este 22 Este 0 -- -- 94
2019-07-26 12:00:00 20.2 13 Noroeste 27 Noroeste 0 -- -- 72
2019-07-26 11:00:00 19.7 9 Oeste 15 Oeste 0 -- -- 75
2019-07-26 10:00:00 17 4 Sudoeste 24 Sudeste 0 -- -- 92
2019-07-26 09:00:00 15.7 22 Sudeste 35 Sudeste 0 -- -- 96
2019-07-26 08:00:00 15.4 19 Sudeste 26 Sudeste 0 -- -- 94
2019-07-26 07:00:00 16 14 Sudeste 31 Oeste 0.4 -- -- 91
2019-07-26 06:00:00 16.1 14 Sudeste 27 Sudeste 0.2 -- -- 94
2019-07-26 05:00:00 16.3 17 Este 44 Sudeste 0 -- -- 95
2019-07-26 04:00:00 16.2 30 Sudeste 41 Sudeste 0.2 -- -- 97
2019-07-26 03:00:00 16.6 14 Sudeste 28 Sudeste 0 -- -- 94
2019-07-26 02:00:00 17 23 Sudeste 33 Sudeste 0 -- -- 91
2019-07-26 01:00:00 17.6 28 Este 35 Este 0 -- -- 89
2019-07-26 00:00:00 19.3 21 Sudeste 27 Este 0 -- -- 74
2019-07-25 23:00:00 20.4 6 Oeste 10 Oeste 0 -- -- 49
2019-07-25 22:00:00 23.9 4 Noroeste 10 Norte 0 -- -- 38
2019-07-25 21:00:00 26.6 9 Norte 32 Noroeste 0 -- -- 34
2019-07-25 20:00:00 28.9 15 Oeste 30 Oeste 0 -- -- 27
2019-07-25 19:00:00 29.8 16 Oeste 35 Oeste 0 -- -- 29
2019-07-25 18:00:00 30.8 15 Oeste 33 Oeste 0 -- -- 28
2019-07-25 17:00:00 30.8 12 Noroeste 41 Oeste 0 -- -- 29
2019-07-25 16:00:00 30.5 22 Oeste 39 Oeste 0 -- -- 29
2019-07-25 15:00:00 30.2 19 Oeste 39 Oeste 0 -- -- 31
2019-07-25 14:00:00 29.8 22 Oeste 37 Oeste 0 -- -- 34
2019-07-25 13:00:00 28.5 17 Oeste 34 Oeste 0 -- -- 36
2019-07-25 12:00:00 28 16 Noroeste 31 Noroeste 0 -- -- 37
2019-07-25 11:00:00 25.9 9 Oeste 14 Oeste 0 -- -- 41
2019-07-25 10:00:00 21.3 4 Oeste 5 Oeste 0 -- -- 57
2019-07-25 09:00:00 17.8 0 Calma 5 Oeste 0 -- -- 61
2019-07-25 08:00:00 14.5 0 Calma 6 Sudoeste 0 -- -- 73
2019-07-25 07:00:00 13.6 2 Este 6 Sudoeste 0 -- -- 72
2019-07-25 06:00:00 14 0 Calma 6 Oeste 0 -- -- 72
2019-07-25 05:00:00 15.1 0 Calma 9 Sudoeste 0 -- -- 70
2019-07-25 04:00:00 15.1 0 Calma 9 Este 0 -- -- 71
2019-07-25 03:00:00 15.1 4 Noroeste 10 Sudoeste 0 -- -- 73
2019-07-25 02:00:00 15.8 0 Calma 8 Oeste 0 -- -- 71
2019-07-25 01:00:00 17.8 0 Calma 3 Oeste 0 -- -- 63
2019-07-25 00:00:00 19.1 0 Calma 4 Oeste 0 -- -- 59
2019-07-24 23:00:00 20.6 0 Calma 6 Oeste 0 -- -- 56
2019-07-24 22:00:00 23.6 4 Este 14 Sudeste 0 -- -- 46
2019-07-24 21:00:00 26.5 9 Este 14 Este 0 -- -- 38
2019-07-24 20:00:00 29 6 Oeste 27 Sudoeste 0 -- -- 29
2019-07-24 19:00:00 30 10 Sur 36 Sudoeste 0 -- -- 27
2019-07-24 18:00:00 27 7 Sudeste 40 Sudeste 0 -- -- 40
2019-07-24 17:00:00 26.2 8 Este 55 Oeste 0.2 -- -- 48
2019-07-24 16:00:00 29.8 19 Sudeste 33 Sudeste 0 -- -- 30
2019-07-24 15:00:00 30.8 12 Sudoeste 41 Sudeste 0 -- -- 31
2019-07-24 14:00:00 29.6 14 Sur 30 Oeste 0 -- -- 33
2019-07-24 13:00:00 28.8 9 Oeste 23 Sur 0 -- -- 32
2019-07-24 12:00:00 27.8 6 Sur 24 Sudoeste 0 -- -- 33
2019-07-24 11:00:00 24.7 3 Noroeste 9 Sudoeste 0 -- -- 46
2019-07-24 10:00:00 19.4 3 Oeste 5 Oeste 0 -- -- 80
2019-07-24 09:00:00 15.9 3 Sudoeste 7 Sudoeste 0 -- -- 84
2019-07-24 08:00:00 12.3 0 Calma 5 Noroeste 0 -- -- 94
2019-07-24 07:00:00 11.5 3 Sudoeste 6 Sudeste 0 -- -- 93
2019-07-24 06:00:00 11.9 0 Calma 7 Noroeste 0 -- -- 95
2019-07-24 05:00:00 12.1 4 Oeste 14 Este 0 -- -- 93
2019-07-24 04:00:00 12.9 4 Este 9 Este 0 -- -- 94
2019-07-24 03:00:00 13.7 3 Norte 9 Sudoeste 0 -- -- 93
2019-07-24 02:00:00 15.1 2 Noroeste 13 Oeste 0 -- -- 87
2019-07-24 01:00:00 15.8 11 Oeste 22 Oeste 0 -- -- 88
2019-07-24 00:00:00 18.1 4 Este 24 Nordeste 0.4 -- -- 76
2019-07-23 23:00:00 19.5 20 Oeste 48 Este 0.6 -- -- 65
2019-07-23 22:00:00 20.7 17 Sudeste 27 Sur 0 -- -- 52
2019-07-23 21:00:00 22.7 9 Sur 41 Oeste 0 -- -- 51
2019-07-23 20:00:00 22.5 9 Oeste 40 Oeste 0 -- -- 63
2019-07-23 19:00:00 21.9 12 Sudeste 43 Nordeste 0.4 -- -- 56
2019-07-23 18:00:00 20.8 19 Norte 56 Noroeste 0.4 -- -- 64
2019-07-23 17:00:00 32 19 Sur 34 Sur 0 -- -- 24
2019-07-23 16:00:00 31.6 15 Sur 36 Sudoeste 0 -- -- 27
2019-07-23 15:00:00 31.1 17 Sudoeste 38 Sudoeste 0 -- -- 30
2019-07-23 14:00:00 30.3 18 Sudoeste 35 Este 0 -- -- 32
2019-07-23 13:00:00 28 17 Sudeste 32 Sudeste 0 -- -- 38
2019-07-23 12:00:00 25.3 19 Sudeste 29 Sudeste 0 -- -- 42
2019-07-23 11:00:00 23 2 Sur 13 Oeste 0 -- -- 48
2019-07-23 10:00:00 21.8 12 Noroeste 44 Oeste 0 -- -- 50
2019-07-23 09:00:00 22.2 28 Oeste 39 Oeste 0 -- -- 43
2019-07-23 08:00:00 14.9 5 Este 11 Este 0 -- -- 73
2019-07-23 07:00:00 13 2 Sur 9 Noroeste 0 -- -- 73
2019-07-23 06:00:00 14.3 9 Sudeste 17 Este 0 -- -- 68
2019-07-23 05:00:00 13.8 3 Sudeste 18 Oeste 0 -- -- 70
2019-07-23 04:00:00 15 2 Este 5 Este 0 -- -- 65
2019-07-23 03:00:00 15.9 3 Sudeste 5 Este 0 -- -- 62
2019-07-23 02:00:00 17.8 3 Noroeste 18 Nordeste 0 -- -- 56
2019-07-23 01:00:00 18.6 4 Nordeste 14 Oeste 0 -- -- 55
2019-07-23 00:00:00 21.3 2 Sur 8 Este 0 -- -- 44
2019-07-22 23:00:00 23.8 4 Este 26 Noroeste 0 -- -- 38
2019-07-22 22:00:00 25.3 10 Sudeste 27 Sudeste 0 -- -- 34
2019-07-22 21:00:00 29.2 10 Sudeste 29 Sudeste 0 -- -- 30
2019-07-22 20:00:00 31.3 13 Sudeste 26 Sudeste 0 -- -- 26
2019-07-22 19:00:00 32 13 Sudeste 32 Sudeste 0 -- -- 25
2019-07-22 18:00:00 32.3 19 Sur 36 Sur 0 -- -- 23
2019-07-22 17:00:00 32 18 Sur 33 Sudeste 0 -- -- 26
2019-07-22 16:00:00 31.6 21 Sur 38 Sudeste 0 -- -- 27
2019-07-22 15:00:00 31.6 18 Sur 35 Sudeste 0 -- -- 27
2019-07-22 14:00:00 31.9 15 Sur 30 Este 0 -- -- 27
2019-07-22 13:00:00 30.6 13 Sudeste 26 Sudeste 0 -- -- 27
2019-07-22 12:00:00 29.3 15 Este 24 Este 0 -- -- 28
2019-07-22 11:00:00 27.8 10 Sudeste 19 Sudeste 0 -- -- 33
2019-07-22 10:00:00 24.8 8 Sudeste 11 Sudeste 0 -- -- 48
2019-07-22 09:00:00 20.2 0 Calma 9 Nordeste 0 -- -- 68
2019-07-22 08:00:00 16.4 2 Noroeste 10 Sudoeste 0 -- -- 80
2019-07-22 07:00:00 16.5 4 Noroeste 9 Oeste 0 -- -- 76
2019-07-22 06:00:00 18.9 5 Oeste 15 Sudeste 0 -- -- 70
2019-07-22 05:00:00 18.8 9 Este 17 Este 0 -- -- 72
2019-07-22 04:00:00 18.2 5 Sudeste 19 Sudeste 0 -- -- 82
2019-07-22 03:00:00 18.6 12 Sudeste 29 Sudeste 0 -- -- 86
2019-07-22 02:00:00 18.8 18 Sudeste 33 Sudeste 0 -- -- 87
2019-07-22 01:00:00 19.4 24 Sudeste 36 Sudeste 0 -- -- 84
2019-07-22 00:00:00 19.8 23 Este 34 Sudeste 0 -- -- 84
2019-07-21 23:00:00 20.6 19 Este 30 Este 0 -- -- 81
2019-07-21 22:00:00 21.6 16 Este 33 Este 0 -- -- 79
2019-07-21 21:00:00 22.7 18 Sudeste 35 Este 0 -- -- 78
2019-07-21 20:00:00 26.2 32 Sudeste 42 Sudeste 0 -- -- 62
2019-07-21 19:00:00 28 32 Sudeste 42 Sudeste 0 -- -- 53
2019-07-21 18:00:00 28.9 24 Sudeste 33 Este 0 -- -- 49
2019-07-21 17:00:00 31.3 14 Oeste 37 Oeste 0 -- -- 29
2019-07-21 16:00:00 31.2 22 Sudoeste 37 Sudoeste 0 -- -- 28
2019-07-21 15:00:00 30.4 18 Noroeste 29 Oeste 0 -- -- 34
2019-07-21 14:00:00 29.6 14 Noroeste 28 Noroeste 0 -- -- 35
2019-07-21 13:00:00 28.3 10 Sudeste 19 Sudeste 0 -- -- 42
2019-07-21 12:00:00 26.3 9 Sudeste 21 Sudeste 0 -- -- 45
2019-07-21 11:00:00 23.3 14 Sudeste 21 Sudeste 0 -- -- 64
2019-07-21 10:00:00 18.8 15 Sudeste 21 Sudeste 0 -- -- 84
2019-07-21 09:00:00 16.3 16 Sudeste 26 Sudeste 0 -- -- 95
2019-07-21 08:00:00 15.3 17 Este 27 Sudeste 0 -- -- 98
2019-07-21 07:00:00 15.1 15 Este 34 Este 0 -- -- 97
2019-07-21 06:00:00 15.4 24 Este 35 Sudeste 0 -- -- 96
2019-07-21 05:00:00 15.4 26 Este 37 Este 0 -- -- 97
2019-07-21 04:00:00 15.5 27 Sudeste 35 Sudeste 0 -- -- 96
2019-07-21 03:00:00 15.8 27 Sudeste 37 Sudeste 0 -- -- 96
2019-07-21 02:00:00 15.7 23 Este 37 Este 0 -- -- 96
2019-07-21 01:00:00 15.8 24 Este 40 Sudeste 0 -- -- 94
2019-07-21 00:00:00 17 26 Sudeste 35 Sudeste 0 -- -- 88
2019-07-20 23:00:00 18.7 26 Sudeste 36 Este 0 -- -- 82
2019-07-20 22:00:00 21.1 22 Este 36 Este 0 -- -- 73
2019-07-20 21:00:00 24 14 Este 34 Nordeste 0 -- -- 62
2019-07-20 20:00:00 26.5 19 Este 28 Noroeste 0 -- -- 49
2019-07-20 19:00:00 30.5 15 Noroeste 34 Noroeste 0 -- -- 29
2019-07-20 18:00:00 30.5 20 Noroeste 36 Oeste 0 -- -- 28
2019-07-20 17:00:00 29.9 22 Oeste 44 Oeste 0 -- -- 31
2019-07-20 16:00:00 30.2 24 Noroeste 44 Noroeste 0 -- -- 29
2019-07-20 15:00:00 29.5 18 Oeste 37 Oeste 0 -- -- 33
2019-07-20 14:00:00 28.5 23 Oeste 36 Oeste 0 -- -- 35
2019-07-20 13:00:00 27.5 20 Oeste 32 Noroeste 0 -- -- 38
2019-07-20 12:00:00 26.4 19 Noroeste 28 Noroeste 0 -- -- 38
2019-07-20 11:00:00 25.5 4 Sudeste 10 Sudeste 0 -- -- 46
2019-07-20 10:00:00 21.5 0 Calma 6 Sudeste 0 -- -- 62
2019-07-20 09:00:00 17.7 0 Calma 5 Este 0 -- -- 76
2019-07-20 08:00:00 14.1 0 Calma 5 Noroeste 0 -- -- 85
2019-07-20 07:00:00 13 2 Sudeste 5 Noroeste 0 -- -- 84
2019-07-20 06:00:00 13.6 0 Calma 5 Oeste 0 -- -- 83
2019-07-20 05:00:00 14.5 4 Oeste 8 Sudeste 0 -- -- 83
2019-07-20 04:00:00 15.9 3 Nordeste 6 Este 0 -- -- 76
2019-07-20 03:00:00 16.4 2 Este 4 Este 0 -- -- 75
2019-07-20 02:00:00 17.8 0 Calma 3 Oeste 0 -- -- 74
2019-07-20 01:00:00 19.4 0 Calma 4 Oeste 0 -- -- 68
2019-07-20 00:00:00 20.5 4 Oeste 8 Oeste 0 -- -- 66
2019-07-19 23:00:00 22.7 3 Sudoeste 16 Sudeste 0 -- -- 57
2019-07-19 22:00:00 24.1 12 Este 18 Este 0 -- -- 52
2019-07-19 21:00:00 25.1 14 Este 26 Sudeste 0 -- -- 49
2019-07-19 20:00:00 28 13 Sudeste 24 Oeste 0 -- -- 41
2019-07-19 19:00:00 30.3 14 Noroeste 31 Noroeste 0 -- -- 28
2019-07-19 18:00:00 30.3 15 Noroeste 36 Noroeste 0 -- -- 29
2019-07-19 17:00:00 29.8 18 Oeste 42 Noroeste 0 -- -- 30
2019-07-19 16:00:00 29.8 18 Noroeste 36 Oeste 0 -- -- 30
2019-07-19 15:00:00 29.1 17 Oeste 37 Oeste 0 -- -- 31
2019-07-19 14:00:00 28.4 17 Oeste 30 Oeste 0 -- -- 33
2019-07-19 13:00:00 27.5 9 Oeste 21 Oeste 0 -- -- 34
2019-07-19 12:00:00 26.1 9 Sudoeste 17 Oeste 0 -- -- 39
2019-07-19 11:00:00 23.9 8 Este 13 Este 0 -- -- 47
2019-07-19 10:00:00 20.1 5 Sudeste 9 Este 0 -- -- 61
2019-07-19 09:00:00 15.8 5 Sudeste 8 Sudeste 0 -- -- 75
2019-07-19 08:00:00 10.6 0 Calma 6 Este 0 -- -- 88
2019-07-19 07:00:00 9.7 3 Este 12 Este 0 -- -- 89
2019-07-19 06:00:00 10.3 8 Este 15 Sudeste 0 -- -- 90
2019-07-19 05:00:00 10.9 7 Este 13 Sudeste 0 -- -- 89
2019-07-19 04:00:00 11.7 7 Este 17 Sudeste 0 -- -- 86
2019-07-19 03:00:00 13 13 Sudeste 23 Sudeste 0 -- -- 82
2019-07-19 02:00:00 14.1 19 Sudeste 28 Sudeste 0 -- -- 78
2019-07-19 01:00:00 14.7 21 Este 30 Este 0 -- -- 76
2019-07-19 00:00:00 15.5 21 Este 32 Sudeste 0 -- -- 75
2019-07-18 23:00:00 16.3 16 Sudeste 28 Este 0 -- -- 71
2019-07-18 22:00:00 17.8 15 Este 22 Este 0 -- -- 65
2019-07-18 21:00:00 20.2 12 Este 28 Este 0 -- -- 57
2019-07-18 20:00:00 22.5 16 Este 26 Sudeste 0 -- -- 49
2019-07-18 19:00:00 23.8 19 Sudeste 26 Sudeste 0 -- -- 46
2019-07-18 18:00:00 24.9 16 Nordeste 27 Este 0 -- -- 41
2019-07-18 17:00:00 26.2 15 Este 29 Oeste 0 -- -- 41
2019-07-18 16:00:00 26.5 16 Oeste 33 Oeste 0 -- -- 31
2019-07-18 15:00:00 26.1 19 Oeste 31 Oeste 0 -- -- 34
2019-07-18 14:00:00 25.1 18 Oeste 33 Oeste 0 -- -- 40
2019-07-18 13:00:00 24 9 Noroeste 23 Oeste 0 -- -- 51
2019-07-18 12:00:00 21.9 4 Sudeste 19 Sudeste 0 -- -- 59
2019-07-18 11:00:00 17.8 17 Sudeste 23 Sudeste 0 -- -- 72
2019-07-18 10:00:00 14.9 17 Sudeste 25 Sudeste 0 -- -- 82
2019-07-18 09:00:00 13 19 Sudeste 27 Sudeste 0 -- -- 89
2019-07-18 08:00:00 11.9 22 Sudeste 34 Sudeste 0 -- -- 94
2019-07-18 07:00:00 11.7 25 Sudeste 33 Sudeste 0 -- -- 94
2019-07-18 06:00:00 11.9 18 Sudeste 31 Sudeste 0 -- -- 94
2019-07-18 05:00:00 12.3 21 Sudeste 36 Sudeste 0 -- -- 93
2019-07-18 04:00:00 12.8 20 Sudeste 34 Sudeste 0 -- -- 93
2019-07-18 03:00:00 12.8 18 Este 31 Sudeste 0 -- -- 93
2019-07-18 02:00:00 13.1 19 Sudeste 29 Sudeste 0 -- -- 92
2019-07-18 01:00:00 13.6 22 Sudeste 32 Sudeste 0 -- -- 92
2019-07-18 00:00:00 13.6 17 Sudeste 32 Sudeste 0 -- -- 92